Aérodrome :
LOGIN :

S'inscrire | Disclaimer

   EN    FR    IT 

 










Légende :    VFR   VFR Marginal   IFR   IFR Intensif   IFR Très Intensif
Visi : 
Plafond : 
>= 8 km
>= 3000ft
5 à 8 km
1000 à 3000 ft
1500m à 5 km
500 à 1000 ft
800 à 1500m
200 à 500 ft
< 800m
< 200 ft
Symboles :   Orages  Brouillard  Fortes neiges  Fortes précipitations  Vent > 20 kt
SIGMETs :   Divers  Orages  Givrage  Turbulence  Onde Orograph.  Cendres Volcan.







- Altitude de l'aérodrome : 357 ft
- Code IATA : TUF
- Voir les cartes d'approche


LFOT - Tours

DERNIER METAR :
  • 300230Z AUTO 15005KT CAVOK 08/01 Q1006 NOSIG

METARs EXPIRÉS :
  • 300200Z AUTO 14005KT CAVOK 08/01 Q1006 NOSIG
  • 300130Z AUTO 14009KT CAVOK 09/02 Q1006 NOSIG
  • 300100Z AUTO 13009KT CAVOK 09/02 Q1006 NOSIG
  • 300030Z AUTO 12006KT CAVOK 08/02 Q1007 NOSIG
  • 300000Z AUTO 12005KT CAVOK 08/02 Q1007 NOSIG

TAF TAF LFOT
Valide du 30 à 00h jusqu'au 01 à 00h UTC


292300Z 3000/3024 11007KT CAVOK
BECMG 3007/3009 15010G20KT -RA SCT030CB BKN040
TEMPO 3012/3016 18015G30KT 3000 -TSRA SCT020CB BKN030
BECMG 3018/3020 20012KT 9999 NSW BKN040
BECMG 3021/3024 BKN020
Pas de NOTAMs connus pour ce terrain.



MET'MAP, la Météo Aéronautique d'un coup d'oeil ! - Copyright ORBIFLY Décembre 2007 - Disclaimer

ORBIFLY MET'MAP TEAM :

Programmation & Développement : Alexandra Zaïnal
Conception & Développement : Baudouin d'Aumeries
Co-Programmation & Développement : Marc-Olivier Méhu
Soutien technique & logistique : Manuel Goepfert

Contact : metmap@orbifly.com




SOURCES & CREDITS :

   NOAA